Time;durP1;ratioP1;P1;durP2;ratioP2;P2;SDS_P1;SDS_P2;PMS_P1;PMS_P2;Temp;Humidity;BMP_temperature;BMP_pressure;BME280_temperature;BME280_humidity;BME280_pressure;Samples;Min_cycle;Max_cycle;Signal;HPM_P1;HPM_P2
2021/12/01 00:00:51;;;;;;;6.38;3.15;;;5.90;99.90;;;;;;5103774;28;20043;-69
2021/12/01 00:03:19;;;;;;;8.35;3.22;;;5.90;99.90;;;;;;5104284;28;20111;-69
2021/12/01 00:05:47;;;;;;;6.57;3.28;;;5.90;99.90;;;;;;5103221;28;20051;-69
2021/12/01 00:08:15;;;;;;;4.70;2.50;;;5.90;99.90;;;;;;5103481;28;20103;-69
2021/12/01 00:10:43;;;;;;;6.80;3.40;;;5.90;99.90;;;;;;5104238;28;20100;-69
2021/12/01 00:13:13;;;;;;;5.78;3.38;;;5.90;99.90;;;;;;5103672;28;20020;-69
2021/12/01 00:15:43;;;;;;;5.43;2.70;;;5.90;99.90;;;;;;5103632;28;20024;-69
2021/12/01 00:18:10;;;;;;;5.72;2.88;;;5.90;99.90;;;;;;5103612;28;20039;-69
2021/12/01 00:20:38;;;;;;;6.57;3.55;;;5.90;99.90;;;;;;5101120;28;20024;-69
2021/12/01 00:23:06;;;;;;;7.22;2.92;;;6.00;99.90;;;;;;5100454;28;20031;-69
2021/12/01 00:25:38;;;;;;;5.47;2.75;;;6.00;99.90;;;;;;5100790;28;20028;-69
2021/12/01 00:28:07;;;;;;;3.83;2.00;;;6.00;99.90;;;;;;5099359;28;20032;-69
2021/12/01 00:30:35;;;;;;;4.63;2.15;;;6.00;99.90;;;;;;5100220;28;20012;-69
2021/12/01 00:33:03;;;;;;;3.22;1.70;;;6.00;99.90;;;;;;5082140;28;20059;-69
2021/12/01 00:35:31;;;;;;;3.42;1.90;;;6.00;99.90;;;;;;5100164;28;20082;-69
2021/12/01 00:37:58;;;;;;;3.38;1.67;;;6.10;99.90;;;;;;5100581;28;20021;-69
2021/12/01 00:40:27;;;;;;;3.38;1.80;;;6.10;99.90;;;;;;5100002;28;20020;-69
2021/12/01 00:42:55;;;;;;;3.08;1.50;;;6.10;99.90;;;;;;5100526;28;20024;-69
2021/12/01 00:45:33;;;;;;;1.52;0.90;;;6.10;99.90;;;;;;5099972;28;20024;-69
2021/12/01 00:48:00;;;;;;;2.45;1.05;;;6.20;99.90;;;;;;5099643;28;20375;-69
2021/12/01 00:50:33;;;;;;;1.92;1.05;;;6.20;99.90;;;;;;5100348;28;20024;-69
2021/12/01 00:53:05;;;;;;;2.63;1.20;;;6.30;99.90;;;;;;5099988;28;20026;-69
2021/12/01 00:55:34;;;;;;;1.92;1.02;;;6.50;99.90;;;;;;5099752;28;20084;-69
2021/12/01 00:58:02;;;;;;;4.13;1.30;;;6.60;99.90;;;;;;5100263;28;20024;-69
2021/12/01 01:00:30;;;;;;;2.38;1.23;;;6.70;99.90;;;;;;5099776;28;20040;-69
2021/12/01 01:02:59;;;;;;;1.85;1.00;;;6.80;99.90;;;;;;5099826;28;20301;-69
2021/12/01 01:05:27;;;;;;;2.15;1.10;;;6.90;99.90;;;;;;5099669;28;20027;-69
2021/12/01 01:07:54;;;;;;;1.63;0.90;;;7.00;99.90;;;;;;5100068;28;20016;-69
2021/12/01 01:18:26;;;;;;;1.67;0.90;;;7.30;99.90;;;;;;5099622;28;20485;-69
2021/12/01 01:20:53;;;;;;;1.83;1.05;;;7.30;99.90;;;;;;5099803;28;20360;-69
2021/12/01 01:23:22;;;;;;;5.68;1.52;;;7.40;99.90;;;;;;5099368;28;20024;-69
2021/12/01 01:25:49;;;;;;;1.85;1.00;;;7.50;99.90;;;;;;5098407;28;20055;-70
2021/12/01 01:28:16;;;;;;;2.00;0.90;;;7.50;99.90;;;;;;5099092;28;20019;-69
2021/12/01 01:30:44;;;;;;;2.55;1.20;;;7.50;99.90;;;;;;5099567;28;20023;-69
2021/12/01 01:33:11;;;;;;;1.85;1.08;;;7.60;99.90;;;;;;5064600;28;20062;-69
2021/12/01 01:35:39;;;;;;;2.13;1.13;;;7.60;99.90;;;;;;5099002;28;20024;-69
2021/12/01 01:38:06;;;;;;;2.22;1.23;;;7.70;99.90;;;;;;5098884;28;20031;-70
2021/12/01 01:40:34;;;;;;;2.00;1.00;;;7.70;99.90;;;;;;5098883;28;20024;-69
2021/12/01 01:43:02;;;;;;;1.60;0.90;;;7.70;99.90;;;;;;5099412;28;20440;-69
2021/12/01 01:45:30;;;;;;;1.70;0.95;;;7.80;99.90;;;;;;5099185;28;20050;-69
2021/12/01 01:48:04;;;;;;;1.20;0.60;;;7.80;99.90;;;;;;5080772;28;20301;-69
2021/12/01 01:50:38;;;;;;;1.65;0.95;;;7.80;99.90;;;;;;5098593;28;20042;-69
2021/12/01 01:53:19;;;;;;;1.23;0.70;;;7.90;99.90;;;;;;5098610;28;20032;-70
2021/12/01 01:55:54;;;;;;;1.52;0.70;;;7.90;99.90;;;;;;5099053;28;20039;-70
2021/12/01 01:58:23;;;;;;;1.13;0.50;;;7.90;99.90;;;;;;5099136;28;20032;-69
2021/12/01 02:01:09;;;;;;;0.70;0.30;;;7.90;99.90;;;;;;5098325;28;20074;-70
2021/12/01 02:03:38;;;;;;;;;;;8.00;99.90;;;;;;5099069;28;20024;-69
2021/12/01 02:06:08;;;;;;;0.80;0.50;;;8.00;99.90;;;;;;5097882;28;19914;-70
2021/12/01 02:08:37;;;;;;;1.05;0.47;;;8.10;99.90;;;;;;5098850;28;20054;-70
2021/12/01 02:11:10;;;;;;;0.73;0.40;;;8.10;99.90;;;;;;5098322;28;20111;-69
2021/12/01 02:13:38;;;;;;;4.80;0.55;;;8.10;99.90;;;;;;5099133;28;20028;-70
2021/12/01 02:16:06;;;;;;;0.50;0.43;;;8.20;99.90;;;;;;5098220;28;20470;-70
2021/12/01 02:18:33;;;;;;;1.00;0.50;;;8.20;99.90;;;;;;5080142;28;20027;-69
2021/12/01 02:21:06;;;;;;;1.35;0.80;;;8.20;99.90;;;;;;5098652;28;20078;-69
2021/12/01 02:23:36;;;;;;;1.13;0.52;;;8.20;99.90;;;;;;5080177;28;20038;-70
2021/12/01 02:26:05;;;;;;;4.25;0.70;;;8.30;99.90;;;;;;5097915;28;20055;-69
2021/12/01 02:28:34;;;;;;;1.48;0.88;;;8.30;99.90;;;;;;5080054;28;20020;-70
2021/12/01 02:31:02;;;;;;;2.15;0.50;;;8.30;99.90;;;;;;5097933;28;20093;-70
2021/12/01 02:33:30;;;;;;;1.35;0.82;;;8.30;99.90;;;;;;5098092;28;20027;-69
2021/12/01 02:35:57;;;;;;;1.15;0.60;;;8.30;99.90;;;;;;5097903;28;20024;-70
2021/12/01 02:38:25;;;;;;;1.30;0.75;;;8.30;99.90;;;;;;5097798;28;20035;-70
2021/12/01 02:40:53;;;;;;;1.60;0.95;;;8.30;99.90;;;;;;5097870;28;20015;-70
2021/12/01 02:43:24;;;;;;;1.00;0.65;;;8.30;99.90;;;;;;5097480;28;20020;-70
2021/12/01 02:45:55;;;;;;;2.30;0.68;;;8.30;99.90;;;;;;5097552;28;20024;-70
2021/12/01 02:48:23;;;;;;;1.27;0.70;;;8.30;99.90;;;;;;5079727;28;20020;-70
2021/12/01 02:50:52;;;;;;;1.45;0.95;;;8.40;99.90;;;;;;5097779;28;20027;-70
2021/12/01 02:53:24;;;;;;;1.80;1.10;;;8.30;99.90;;;;;;5097771;28;20024;-70
2021/12/01 02:55:58;;;;;;;1.77;1.10;;;8.40;99.90;;;;;;5079683;28;20020;-69
2021/12/01 02:58:28;;;;;;;2.17;1.15;;;8.40;99.90;;;;;;5098132;28;20024;-69
2021/12/01 03:00:58;;;;;;;2.85;1.90;;;8.40;99.90;;;;;;5097543;28;20052;-69
2021/12/01 03:03:26;;;;;;;4.15;1.83;;;8.40;99.90;;;;;;5098201;28;20020;-69
2021/12/01 03:05:54;;;;;;;2.15;1.08;;;8.40;99.90;;;;;;5097376;28;20031;-70
2021/12/01 03:08:21;;;;;;;2.42;1.67;;;8.40;99.90;;;;;;5097555;28;20150;-69
2021/12/01 03:10:52;;;;;;;1.73;1.20;;;8.40;99.90;;;;;;5098122;28;20385;-70
2021/12/01 03:13:21;;;;;;;1.92;1.42;;;8.40;99.90;;;;;;5080625;28;20089;-69
2021/12/01 03:15:48;;;;;;;2.47;1.40;;;8.40;99.90;;;;;;5097199;28;20030;-70
2021/12/01 03:18:16;;;;;;;2.08;1.40;;;8.40;99.90;;;;;;5097850;28;20028;-69
2021/12/01 03:20:45;;;;;;;2.58;1.30;;;8.40;99.90;;;;;;5097932;28;20032;-69
2021/12/01 03:23:12;;;;;;;2.08;1.48;;;8.40;99.90;;;;;;5097544;28;20073;-70
2021/12/01 03:25:39;;;;;;;2.72;1.38;;;8.40;99.90;;;;;;5097243;28;20051;-69
2021/12/01 03:28:08;;;;;;;2.17;1.48;;;8.40;99.90;;;;;;5079321;28;20027;-69
2021/12/01 03:30:39;;;;;;;1.85;1.30;;;8.40;99.90;;;;;;5097240;28;20328;-70
2021/12/01 03:33:16;;;;;;;2.05;1.30;;;8.40;99.90;;;;;;5097094;28;20024;-69
2021/12/01 03:35:46;;;;;;;4.07;1.35;;;8.40;99.90;;;;;;5079295;28;20036;-70
2021/12/01 03:38:14;;;;;;;2.25;1.40;;;8.40;99.90;;;;;;5097755;28;20351;-69
2021/12/01 03:40:42;;;;;;;2.50;1.73;;;8.40;99.90;;;;;;5097769;28;20020;-70
2021/12/01 03:43:09;;;;;;;3.08;1.75;;;8.40;99.90;;;;;;5097919;28;20020;-69
2021/12/01 03:45:39;;;;;;;2.00;1.50;;;8.40;99.90;;;;;;5097102;28;20030;-70
2021/12/01 03:48:07;;;;;;;2.95;1.77;;;8.40;99.90;;;;;;5097693;28;20103;-69
2021/12/01 03:50:36;;;;;;;1.75;1.25;;;8.40;99.90;;;;;;5078957;28;20077;-69
2021/12/01 03:53:03;;;;;;;2.72;1.30;;;8.40;99.90;;;;;;5079032;28;20024;-69
2021/12/01 03:55:31;;;;;;;2.50;1.40;;;8.40;99.90;;;;;;5097621;28;20428;-69
2021/12/01 03:57:59;;;;;;;2.40;1.40;;;8.30;99.90;;;;;;5101237;28;20024;-70
2021/12/01 04:00:29;;;;;;;2.30;1.35;;;8.30;99.90;;;;;;5100727;28;20044;-70
2021/12/01 04:02:57;;;;;;;2.42;1.15;;;8.30;99.90;;;;;;5101328;28;20058;-70
2021/12/01 04:05:24;;;;;;;1.35;0.98;;;8.30;99.90;;;;;;5100454;28;20028;-70
2021/12/01 04:07:52;;;;;;;1.30;0.90;;;8.30;99.90;;;;;;5082293;28;20298;-69
2021/12/01 04:10:20;;;;;;;2.00;1.15;;;8.30;99.90;;;;;;5101062;28;20041;-69
2021/12/01 04:12:49;;;;;;;1.92;1.17;;;8.20;99.90;;;;;;5100943;28;20016;-70
2021/12/01 04:15:16;;;;;;;1.13;0.60;;;8.20;99.90;;;;;;5100832;28;20103;-69
2021/12/01 04:17:44;;;;;;;1.33;0.85;;;8.20;99.90;;;;;;5100599;28;20047;-69
2021/12/01 04:20:13;;;;;;;1.52;0.85;;;8.10;99.90;;;;;;5100604;28;20024;-70
2021/12/01 04:22:42;;;;;;;1.95;1.30;;;8.10;99.90;;;;;;5100381;28;20028;-69
2021/12/01 04:25:10;;;;;;;2.20;0.90;;;8.10;99.90;;;;;;5100507;28;20032;-69
2021/12/01 04:27:38;;;;;;;0.98;0.80;;;8.10;99.90;;;;;;5100332;28;20105;-70
2021/12/01 04:30:11;;;;;;;1.23;0.88;;;8.00;99.90;;;;;;5100220;28;20115;-69
2021/12/01 04:32:40;;;;;;;1.92;1.10;;;8.00;99.90;;;;;;5100237;28;20020;-69
2021/12/01 04:35:08;;;;;;;3.22;1.17;;;8.00;99.90;;;;;;5082373;28;20086;-69
2021/12/01 04:37:36;;;;;;;1.63;1.00;;;7.90;99.90;;;;;;5100180;28;20118;-69
2021/12/01 04:40:06;;;;;;;1.95;0.98;;;7.90;99.90;;;;;;5100068;28;20028;-70
2021/12/01 04:42:35;;;;;;;1.10;0.70;;;7.90;99.90;;;;;;5100460;28;20056;-70
2021/12/01 04:45:06;;;;;;;3.17;0.70;;;7.90;99.90;;;;;;5099695;28;20020;-70
2021/12/01 04:47:41;;;;;;;1.52;0.80;;;7.80;99.90;;;;;;5081356;28;20115;-70
2021/12/01 04:50:10;;;;;;;1.25;0.77;;;7.80;99.90;;;;;;5083438;28;20012;-70
2021/12/01 04:52:38;;;;;;;4.03;0.80;;;7.90;99.90;;;;;;5099852;28;20328;-70
2021/12/01 04:55:06;;;;;;;1.95;1.05;;;7.80;99.90;;;;;;5099886;28;20361;-70
2021/12/01 04:57:42;;;;;;;1.10;0.70;;;7.80;99.90;;;;;;5100009;28;20020;-70
2021/12/01 05:00:15;;;;;;;1.40;0.80;;;7.80;99.90;;;;;;5100044;28;20077;-69
2021/12/01 05:02:45;;;;;;;;;;;7.80;99.90;;;;;;5100022;28;20055;-69
2021/12/01 05:05:13;;;;;;;1.10;0.60;;;7.80;99.90;;;;;;5081715;28;19908;-70
2021/12/01 05:07:41;;;;;;;1.17;0.73;;;7.70;99.90;;;;;;5098892;28;20023;-69
2021/12/01 05:10:08;;;;;;;1.83;1.05;;;7.70;99.90;;;;;;5081850;28;20020;-69
2021/12/01 05:12:36;;;;;;;1.13;0.57;;;7.70;99.90;;;;;;5100110;28;20029;-70
2021/12/01 05:15:05;;;;;;;0.60;0.43;;;7.70;99.90;;;;;;5081626;28;20603;-70
2021/12/01 05:17:33;;;;;;;0.82;0.50;;;7.70;99.90;;;;;;5100016;28;20028;-69
2021/12/01 05:20:01;;;;;;;0.93;0.57;;;7.60;99.90;;;;;;5081550;28;20028;-70
2021/12/01 05:22:28;;;;;;;0.98;0.57;;;7.60;99.90;;;;;;5099509;28;20081;-69
2021/12/01 05:24:56;;;;;;;1.27;0.70;;;7.60;99.90;;;;;;5098809;28;20352;-70
2021/12/01 05:27:23;;;;;;;1.20;0.77;;;7.60;99.90;;;;;;5099677;28;20051;-70
2021/12/01 05:29:51;;;;;;;1.38;0.75;;;7.50;99.90;;;;;;5099388;28;20301;-70
2021/12/01 05:32:20;;;;;;;1.35;0.70;;;7.50;99.90;;;;;;5081196;28;20376;-69
2021/12/01 05:34:47;;;;;;;1.63;0.70;;;7.50;99.90;;;;;;5098976;28;20030;-69
2021/12/01 05:37:15;;;;;;;1.15;0.60;;;7.50;99.90;;;;;;5099336;28;20024;-70
2021/12/01 05:39:45;;;;;;;0.93;0.50;;;7.40;99.90;;;;;;5099210;28;20051;-70
2021/12/01 05:42:13;;;;;;;0.95;0.60;;;7.40;99.90;;;;;;5080887;28;20050;-70
2021/12/01 05:44:41;;;;;;;1.42;0.60;;;7.40;99.90;;;;;;5098872;28;20026;-70
2021/12/01 05:47:08;;;;;;;1.73;0.60;;;7.40;99.90;;;;;;5099359;28;20028;-69
2021/12/01 05:49:41;;;;;;;1.20;0.57;;;7.40;99.90;;;;;;5099018;28;20012;-69
2021/12/01 05:52:11;;;;;;;1.98;0.70;;;7.40;99.90;;;;;;5098525;28;20089;-69
2021/12/01 05:54:38;;;;;;;1.58;0.60;;;7.40;99.90;;;;;;5098753;28;20020;-69
2021/12/01 05:57:06;;;;;;;1.90;0.60;;;7.40;99.90;;;;;;5080921;28;20081;-69
2021/12/01 05:59:33;;;;;;;1.27;0.70;;;7.30;99.90;;;;;;5098285;28;20027;-69
2021/12/01 06:02:00;;;;;;;1.10;0.60;;;7.30;99.90;;;;;;5098515;28;20404;-69
2021/12/01 06:04:28;;;;;;;1.05;0.50;;;7.30;99.90;;;;;;5080484;28;20028;-69
2021/12/01 06:06:55;;;;;;;1.20;0.60;;;7.30;99.90;;;;;;5098992;28;20016;-69
2021/12/01 06:09:23;;;;;;;0.82;0.40;;;7.30;99.90;;;;;;5098686;28;20058;-69
2021/12/01 06:11:52;;;;;;;3.10;0.68;;;7.30;99.90;;;;;;5080466;28;20048;-69
2021/12/01 06:14:19;;;;;;;2.22;0.40;;;7.30;99.90;;;;;;5098380;28;20027;-69
2021/12/01 06:16:47;;;;;;;0.90;0.40;;;7.30;99.90;;;;;;5080527;28;20356;-69
2021/12/01 06:19:15;;;;;;;1.67;0.60;;;7.40;99.90;;;;;;5098113;28;20024;-69
2021/12/01 06:21:44;;;;;;;1.65;0.50;;;7.40;99.90;;;;;;5098594;28;20049;-69
2021/12/01 06:24:11;;;;;;;1.30;0.63;;;7.40;99.90;;;;;;5080158;28;20028;-69
2021/12/01 06:26:39;;;;;;;0.95;0.50;;;7.40;99.90;;;;;;5098582;28;20107;-69
2021/12/01 06:29:07;;;;;;;1.35;0.60;;;7.50;99.90;;;;;;5098167;28;20016;-69
2021/12/01 06:31:35;;;;;;;0.95;0.50;;;7.50;99.90;;;;;;5098608;28;20020;-69
2021/12/01 06:34:02;;;;;;;0.98;0.50;;;7.50;99.90;;;;;;5098243;28;20016;-69
2021/12/01 06:36:30;;;;;;;1.10;0.57;;;7.50;99.90;;;;;;5097922;28;20032;-69
2021/12/01 06:38:58;;;;;;;0.98;0.57;;;7.50;99.90;;;;;;5097566;28;20052;-69
2021/12/01 06:41:25;;;;;;;1.00;0.50;;;7.50;99.90;;;;;;5097911;28;20039;-69
2021/12/01 06:43:53;;;;;;;0.60;0.47;;;7.50;99.90;;;;;;5098054;28;20024;-69
2021/12/01 06:46:21;;;;;;;1.42;0.60;;;7.50;99.90;;;;;;5098288;28;20020;-70
2021/12/01 06:48:49;;;;;;;0.90;0.50;;;7.50;99.90;;;;;;5079921;28;20036;-69
2021/12/01 06:51:17;;;;;;;1.00;0.50;;;7.50;99.90;;;;;;5097453;28;20047;-69
2021/12/01 06:53:45;;;;;;;1.40;0.60;;;7.50;99.90;;;;;;5097971;28;20020;-69
2021/12/01 06:56:12;;;;;;;1.42;0.77;;;7.50;99.90;;;;;;5098220;28;20350;-69
2021/12/01 06:58:40;;;;;;;1.00;0.40;;;7.50;99.90;;;;;;5097651;28;20021;-69
2021/12/01 07:01:07;;;;;;;2.08;0.60;;;7.60;99.90;;;;;;5097628;28;20067;-69
2021/12/01 07:03:35;;;;;;;1.60;0.50;;;7.60;99.90;;;;;;5097889;28;20032;-69
2021/12/01 07:06:03;;;;;;;0.40;0.25;;;7.60;99.90;;;;;;5097362;28;20328;-69
2021/12/01 07:08:31;;;;;;;1.42;0.70;;;7.60;99.90;;;;;;5079614;28;20111;-69
2021/12/01 07:10:59;;;;;;;1.10;0.50;;;7.60;99.90;;;;;;5097490;28;20109;-69
2021/12/01 07:13:31;;;;;;;1.42;0.70;;;7.60;99.90;;;;;;5079709;28;20112;-69
2021/12/01 07:16:00;;;;;;;0.75;0.47;;;7.60;99.90;;;;;;5097437;28;20024;-70
2021/12/01 07:18:28;;;;;;;0.98;0.50;;;7.60;99.90;;;;;;5097071;28;20104;-70
2021/12/01 07:20:56;;;;;;;1.48;0.60;;;7.60;99.90;;;;;;5079145;28;20020;-70
2021/12/01 07:23:24;;;;;;;1.75;0.68;;;7.60;99.90;;;;;;5097501;28;20016;-69
2021/12/01 07:25:51;;;;;;;1.75;0.75;;;7.60;99.90;;;;;;5097854;28;20046;-70
2021/12/01 07:28:19;;;;;;;1.77;0.57;;;7.60;99.90;;;;;;5097913;28;20024;-70
2021/12/01 07:30:46;;;;;;;1.25;0.50;;;7.60;99.90;;;;;;5099946;28;20031;-70
2021/12/01 07:33:14;;;;;;;1.48;1.05;;;7.60;99.90;;;;;;5101617;28;20016;-70
2021/12/01 07:35:41;;;;;;;2.53;1.10;;;7.60;99.90;;;;;;5101942;28;20032;-70
2021/12/01 07:38:09;;;;;;;1.42;0.50;;;7.60;99.90;;;;;;5101581;28;20362;-70
2021/12/01 07:40:36;;;;;;;0.73;0.50;;;7.60;99.90;;;;;;5101630;28;20024;-70
2021/12/01 07:43:05;;;;;;;1.52;0.60;;;7.60;99.90;;;;;;5101503;28;20035;-70
2021/12/01 07:45:32;;;;;;;0.95;0.50;;;7.60;99.90;;;;;;5101691;28;20024;-69
2021/12/01 07:48:00;;;;;;;0.75;0.40;;;7.50;99.90;;;;;;5083166;28;20356;-73
2021/12/01 07:50:27;;;;;;;1.77;0.50;;;7.50;99.90;;;;;;5082970;28;20107;-69
2021/12/01 07:52:55;;;;;;;0.82;0.40;;;7.50;99.90;;;;;;5082996;28;20032;-69
2021/12/01 07:55:23;;;;;;;1.55;0.70;;;7.50;99.90;;;;;;5101583;28;20408;-70
2021/12/01 07:57:51;;;;;;;1.55;0.60;;;7.50;99.90;;;;;;5100689;28;20485;-71
2021/12/01 08:00:18;;;;;;;0.90;0.52;;;7.50;99.90;;;;;;5100347;28;20458;-71
2021/12/01 08:02:45;;;;;;;1.17;0.60;;;7.50;99.90;;;;;;5082943;28;20034;-71
2021/12/01 08:05:13;;;;;;;1.10;0.50;;;7.50;99.90;;;;;;5082926;28;20027;-73
2021/12/01 08:07:40;;;;;;;1.20;0.50;;;7.50;99.90;;;;;;5101019;28;20027;-72
2021/12/01 08:10:10;;;;;;;2.17;0.70;;;7.50;99.90;;;;;;5082771;28;20021;-73
2021/12/01 08:12:38;;;;;;;1.23;0.57;;;7.50;99.90;;;;;;5082793;28;20309;-73
2021/12/01 08:15:07;;;;;;;1.17;0.60;;;7.50;99.90;;;;;;5100800;28;20023;-73
2021/12/01 08:17:36;;;;;;;0.93;0.57;;;7.50;99.90;;;;;;5100421;28;20328;-73
2021/12/01 08:20:05;;;;;;;1.38;0.65;;;7.50;99.90;;;;;;5100686;28;20028;-71
2021/12/01 08:22:32;;;;;;;0.93;0.55;;;7.40;99.90;;;;;;5082536;28;20051;-73
2021/12/01 08:24:59;;;;;;;1.55;0.60;;;7.40;99.90;;;;;;5100922;28;20382;-73
2021/12/01 08:27:28;;;;;;;1.23;0.70;;;7.40;99.90;;;;;;5101000;28;20427;-73
2021/12/01 08:29:56;;;;;;;1.52;0.75;;;7.30;99.90;;;;;;5100762;28;20020;-73
2021/12/01 08:32:23;;;;;;;1.83;0.50;;;7.30;99.90;;;;;;5100398;28;20599;-73
2021/12/01 08:34:52;;;;;;;1.70;0.70;;;7.30;99.90;;;;;;5100365;28;20023;-73
2021/12/01 08:37:21;;;;;;;0.93;0.43;;;7.40;99.90;;;;;;5100018;28;20016;-73
2021/12/01 08:39:50;;;;;;;0.90;0.50;;;7.40;99.90;;;;;;5100127;28;20020;-73
2021/12/01 08:42:23;;;;;;;1.17;0.50;;;7.30;99.90;;;;;;5099553;28;20024;-73
2021/12/01 08:44:51;;;;;;;1.63;0.88;;;7.30;99.90;;;;;;5082270;28;20485;-74
2021/12/01 08:47:20;;;;;;;1.83;0.90;;;7.30;99.90;;;;;;5100351;28;20103;-73
2021/12/01 08:49:48;;;;;;;1.83;0.70;;;7.30;99.90;;;;;;5082166;28;20020;-73
2021/12/01 08:52:16;;;;;;;2.17;0.90;;;7.20;99.90;;;;;;5100004;28;20316;-73
2021/12/01 08:54:43;;;;;;;1.80;0.82;;;7.30;99.90;;;;;;5100337;28;20020;-74
2021/12/01 08:57:11;;;;;;;1.45;0.70;;;7.30;99.90;;;;;;5100473;28;20047;-73
2021/12/01 08:59:39;;;;;;;1.55;0.52;;;7.20;99.90;;;;;;5099449;28;20473;-73
2021/12/01 09:02:07;;;;;;;1.33;0.63;;;7.30;99.90;;;;;;5099834;28;20028;-71
2021/12/01 09:04:35;;;;;;;2.13;0.60;;;7.20;99.90;;;;;;5100088;28;20286;-70
2021/12/01 09:07:04;;;;;;;1.33;0.52;;;7.30;99.90;;;;;;5099656;28;20107;-70
2021/12/01 09:09:32;;;;;;;1.27;0.70;;;7.30;99.90;;;;;;5081759;28;20024;-69
2021/12/01 09:11:59;;;;;;;1.10;0.45;;;7.30;99.90;;;;;;5099506;28;20023;-71
2021/12/01 09:14:27;;;;;;;0.98;0.52;;;7.30;99.90;;;;;;5100273;28;20043;-70
2021/12/01 09:16:55;;;;;;;0.65;0.30;;;7.30;99.90;;;;;;5099242;28;20024;-70
2021/12/01 09:19:24;;;;;;;0.77;0.30;;;7.30;99.90;;;;;;5098757;28;20016;-70
2021/12/01 09:21:52;;;;;;;1.48;0.60;;;7.30;99.90;;;;;;5081200;28;20020;-69
2021/12/01 09:24:21;;;;;;;1.13;0.60;;;7.30;99.90;;;;;;5099901;28;20401;-71
2021/12/01 09:26:49;;;;;;;1.63;0.50;;;7.30;99.90;;;;;;5099758;28;20028;-71
2021/12/01 09:29:17;;;;;;;0.55;0.35;;;7.40;99.90;;;;;;5081313;28;20380;-71
2021/12/01 09:31:45;;;;;;;2.42;0.40;;;7.40;99.90;;;;;;5099782;28;20028;-71
2021/12/01 09:34:12;;;;;;;0.93;0.40;;;7.40;99.90;;;;;;5081375;28;20048;-71
2021/12/01 09:36:40;;;;;;;0.77;0.40;;;7.40;99.90;;;;;;5081026;28;20020;-71
2021/12/01 09:39:08;;;;;;;0.85;0.40;;;7.40;99.90;;;;;;5081254;28;20026;-71
2021/12/01 09:41:36;;;;;;;0.47;0.28;;;7.40;99.90;;;;;;5099023;28;20032;-71
2021/12/01 09:44:05;;;;;;;0.60;0.30;;;7.50;99.90;;;;;;5080949;28;20032;-71
2021/12/01 09:46:32;;;;;;;0.75;0.35;;;7.50;99.90;;;;;;5080750;28;20416;-71
2021/12/01 09:49:00;;;;;;;1.33;0.30;;;7.50;99.90;;;;;;5099267;28;20412;-71
2021/12/01 09:51:27;;;;;;;0.40;0.20;;;7.50;99.90;;;;;;5081195;28;20024;-71
2021/12/01 09:53:55;;;;;;;0.35;0.10;;;7.50;99.90;;;;;;5098728;28;20469;-71
2021/12/01 09:56:24;;;;;;;0.50;0.20;;;7.50;99.90;;;;;;5098194;28;20032;-71
2021/12/01 09:58:52;;;;;;;0.85;0.20;;;7.50;99.90;;;;;;5098789;28;20016;-71
2021/12/01 10:01:22;;;;;;;0.40;0.20;;;7.60;99.90;;;;;;5080468;28;20051;-71
2021/12/01 10:03:51;;;;;;;0.52;0.15;;;7.60;99.90;;;;;;5098931;28;20035;-71
2021/12/01 10:06:21;;;;;;;0.88;0.30;;;7.70;99.90;;;;;;5098323;28;20031;-71
2021/12/01 10:08:51;;;;;;;0.10;0.10;;;7.70;99.90;;;;;;5064385;28;20023;-70
2021/12/01 10:11:24;;;;;;;0.35;0.28;;;7.70;99.90;;;;;;5098479;28;20027;-71
2021/12/01 10:14:00;;;;;;;2.50;0.10;;;7.70;99.90;;;;;;5098756;28;20016;-71
2021/12/01 10:16:32;;;;;;;0.20;0.10;;;7.70;99.90;;;;;;5098980;28;20031;-71
2021/12/01 10:19:04;;;;;;;0.15;0.10;;;7.70;99.90;;;;;;5099080;28;20028;-71
2021/12/01 10:21:36;;;;;;;0.10;0.10;;;7.70;99.90;;;;;;5098298;28;20077;-71
2021/12/01 10:24:21;;;;;;;0.20;0.10;;;7.70;99.90;;;;;;5098831;28;20081;-71
2021/12/01 10:26:56;;;;;;;0.15;0.10;;;7.80;99.90;;;;;;5098106;28;20107;-71
2021/12/01 10:29:33;;;;;;;0.10;0.10;;;7.80;99.90;;;;;;5098958;28;20103;-71
2021/12/01 10:32:14;;;;;;;0.10;0.10;;;7.90;99.90;;;;;;5080172;28;20024;-71
2021/12/01 10:34:50;;;;;;;0.77;0.40;;;7.90;99.90;;;;;;5079679;28;20063;-71
2021/12/01 10:40:17;;;;;;;0.32;0.10;;;7.90;99.90;;;;;;5098183;28;20107;-71
2021/12/01 10:43:02;;;;;;;0.57;0.20;;;7.80;99.90;;;;;;5097670;28;20047;-71
2021/12/01 10:45:35;;;;;;;0.47;0.20;;;7.80;99.90;;;;;;5079830;28;20123;-71
2021/12/01 10:48:06;;;;;;;0.47;0.10;;;7.80;99.90;;;;;;5098664;28;20353;-71
2021/12/01 10:50:36;;;;;;;0.17;0.10;;;7.80;99.90;;;;;;5098424;28;20016;-71
2021/12/01 10:53:13;;;;;;;0.10;0.10;;;7.80;99.90;;;;;;5097798;28;20012;-71
2021/12/01 10:55:59;;;;;;;0.22;0.10;;;7.70;99.90;;;;;;5097705;28;20024;-71
2021/12/01 10:58:36;;;;;;;0.20;0.10;;;7.80;99.90;;;;;;5097957;28;20027;-71
2021/12/01 11:01:18;;;;;;;0.28;0.17;;;7.80;99.90;;;;;;5097666;28;20569;-71
2021/12/01 11:03:47;;;;;;;0.50;0.20;;;7.80;99.90;;;;;;5097984;28;20024;-71
2021/12/01 11:06:22;;;;;;;0.17;0.10;;;7.90;99.90;;;;;;5097058;28;20035;-71
2021/12/01 11:09:02;;;;;;;2.30;0.20;;;7.90;99.90;;;;;;5079874;28;20020;-71
2021/12/01 11:11:42;;;;;;;0.20;0.10;;;8.00;99.90;;;;;;5097500;28;20078;-71
2021/12/01 11:14:13;;;;;;;0.68;0.10;;;8.10;99.90;;;;;;5096829;28;20412;-71
2021/12/01 11:16:44;;;;;;;0.10;0.10;;;8.10;99.90;;;;;;5079660;28;20028;-71
2021/12/01 11:19:13;;;;;;;0.25;0.15;;;8.20;99.90;;;;;;5098029;28;20024;-71
2021/12/01 11:21:40;;;;;;;0.15;0.15;;;8.30;99.90;;;;;;5097925;28;20059;-71
2021/12/01 11:24:13;;;;;;;0.43;0.20;;;8.40;99.90;;;;;;5098026;28;20476;-71
2021/12/01 11:26:45;;;;;;;0.30;0.10;;;8.40;99.90;;;;;;5097892;28;20111;-71
2021/12/01 11:29:13;;;;;;;0.15;0.10;;;8.50;99.90;;;;;;5097897;28;20035;-71
2021/12/01 11:31:45;;;;;;;0.52;0.10;;;8.50;99.90;;;;;;5098200;28;20027;-71
2021/12/01 11:34:15;;;;;;;3.10;0.20;;;8.50;99.90;;;;;;5097184;28;20024;-69
2021/12/01 11:36:47;;;;;;;0.17;0.10;;;8.50;99.90;;;;;;5079130;28;20072;-71
2021/12/01 11:39:22;;;;;;;0.13;0.13;;;8.50;99.90;;;;;;5097453;28;20060;-71
2021/12/01 11:41:53;;;;;;;0.47;0.10;;;8.40;99.90;;;;;;5097843;28;20044;-71
2021/12/01 11:44:21;;;;;;;0.88;0.20;;;8.30;99.90;;;;;;5097222;28;20429;-70
2021/12/01 11:46:50;;;;;;;0.10;0.10;;;8.30;99.90;;;;;;5097539;28;20111;-71
2021/12/01 11:49:21;;;;;;;0.10;0.05;;;8.20;99.90;;;;;;5097887;28;20020;-71
2021/12/01 11:51:59;;;;;;;0.22;0.10;;;8.10;99.90;;;;;;5097118;28;20103;-72
2021/12/01 11:54:27;;;;;;;0.20;0.20;;;8.20;99.90;;;;;;5097471;28;20031;-71
2021/12/01 11:57:11;;;;;;;0.10;0.00;;;8.10;99.90;;;;;;5079175;28;20039;-71
2021/12/01 11:59:47;;;;;;;0.20;0.10;;;8.10;99.90;;;;;;5096749;28;20031;-72
2021/12/01 12:02:25;;;;;;;0.60;0.17;;;8.00;99.90;;;;;;5097591;28;20028;-71
2021/12/01 12:04:57;;;;;;;1.65;0.17;;;8.00;99.90;;;;;;5097481;28;20028;-71
2021/12/01 12:07:27;;;;;;;0.73;0.40;;;8.00;99.90;;;;;;5096680;28;20026;-71
2021/12/01 12:10:17;;;;;;;0.50;0.32;;;7.90;99.90;;;;;;5097553;28;20028;-71
2021/12/01 12:13:03;;;;;;;0.28;0.10;;;7.90;99.90;;;;;;5096941;28;20024;-71
2021/12/01 12:15:47;;;;;;;0.70;0.25;;;7.90;99.90;;;;;;5097496;28;20028;-71
2021/12/01 12:18:35;;;;;;;1.27;0.10;;;7.90;99.90;;;;;;5100184;28;20043;-71
2021/12/01 12:21:35;;;;;;;2.33;0.85;;;7.90;99.90;;;;;;5100450;28;20141;-72
2021/12/01 12:24:12;;;;;;;0.82;0.40;;;7.90;99.90;;;;;;5100422;28;20323;-72
2021/12/01 12:26:42;;;;;;;;;;;7.90;99.90;;;;;;5100761;28;20103;-71
2021/12/01 12:29:17;;;;;;;0.17;0.17;;;7.90;99.90;;;;;;5100422;28;19949;-71
2021/12/01 12:31:46;;;;;;;0.25;0.10;;;7.90;99.90;;;;;;5082380;28;20036;-71
2021/12/01 12:34:25;;;;;;;0.20;0.13;;;7.90;99.90;;;;;;5100818;28;20028;-71
2021/12/01 12:37:00;;;;;;;4.97;0.80;;;7.90;99.90;;;;;;5100131;28;20420;-71
2021/12/01 12:39:31;;;;;;;0.20;0.20;;;7.90;99.90;;;;;;5100567;28;20024;-71
2021/12/01 12:42:00;;;;;;;0.20;0.10;;;7.90;99.90;;;;;;5100081;28;20156;-71
2021/12/01 12:44:39;;;;;;;0.73;0.20;;;7.90;99.90;;;;;;5100500;28;20110;-71
2021/12/01 12:47:12;;;;;;;0.47;0.35;;;7.90;99.90;;;;;;5100257;28;20028;-71
2021/12/01 12:49:46;;;;;;;0.28;0.20;;;8.00;99.90;;;;;;5100635;28;20020;-71
2021/12/01 12:52:25;;;;;;;1.17;0.20;;;8.00;99.90;;;;;;5099720;28;20443;-71
2021/12/01 12:55:14;;;;;;;0.40;0.20;;;8.00;99.90;;;;;;5100421;28;20048;-72
2021/12/01 12:57:51;;;;;;;0.32;0.20;;;8.00;99.90;;;;;;5067945;28;20028;-71
2021/12/01 13:00:22;;;;;;;1.77;0.20;;;8.10;99.90;;;;;;5099999;28;20508;-71
2021/12/01 13:02:51;;;;;;;2.00;0.30;;;8.10;99.90;;;;;;5099731;28;20020;-72
2021/12/01 13:05:39;;;;;;;2.40;0.30;;;8.10;99.90;;;;;;5099740;28;20024;-72
2021/12/01 13:08:29;;;;;;;0.40;0.20;;;8.10;99.90;;;;;;5098965;28;20024;-72
2021/12/01 13:11:04;;;;;;;1.63;0.30;;;8.10;99.90;;;;;;5081682;28;20110;-71
2021/12/01 13:13:38;;;;;;;0.55;0.25;;;8.10;99.90;;;;;;5099315;28;20417;-72
2021/12/01 13:16:08;;;;;;;0.70;0.30;;;8.10;99.90;;;;;;5100070;28;20290;-72
2021/12/01 13:18:41;;;;;;;1.17;0.77;;;8.10;99.90;;;;;;5099492;28;20027;-72
2021/12/01 13:21:11;;;;;;;1.05;0.47;;;8.10;99.90;;;;;;5100055;28;20033;-71
2021/12/01 13:23:44;;;;;;;0.47;0.30;;;8.10;99.90;;;;;;5099503;28;20024;-72